createdAt,value
2019-01-04T00:01:45.180Z,94.86
2019-01-04T00:04:23.427Z,94.69
2019-01-04T00:06:54.262Z,94.65
2019-01-04T00:09:25.097Z,94.67
2019-01-04T00:11:55.891Z,94.81
2019-01-04T00:14:26.765Z,94.72
2019-01-04T00:16:57.669Z,94.61
2019-01-04T00:19:28.492Z,94.76
2019-01-04T00:21:59.382Z,95.01
2019-01-04T00:24:30.182Z,95.28
2019-01-04T00:27:00.970Z,95.37
2019-01-04T00:29:31.761Z,95.80
2019-01-04T00:32:02.570Z,96.17
2019-01-04T00:34:33.358Z,96.73
2019-01-04T00:37:04.222Z,96.27
2019-01-04T00:39:35.007Z,95.79
2019-01-04T00:42:05.797Z,95.68
2019-01-04T00:44:36.676Z,95.64
2019-01-04T00:47:07.489Z,95.74
2019-01-04T00:49:38.306Z,95.49
2019-01-04T00:52:09.154Z,95.71
2019-01-04T00:54:39.990Z,96.00
2019-01-04T00:58:00.230Z,96.34
2019-01-04T01:01:32.673Z,96.65
2019-01-04T01:04:50.277Z,96.90
2019-01-04T01:08:37.911Z,97.16
2019-01-04T01:12:22.931Z,97.54
2019-01-04T01:15:53.737Z,97.43
2019-01-04T01:18:57.731Z,97.01
2019-01-04T01:22:21.821Z,97.10
2019-01-04T01:25:59.189Z,97.05
2019-01-04T01:29:38.469Z,96.50
2019-01-04T01:32:57.129Z,96.41
2019-01-04T01:36:09.882Z,95.86
2019-01-04T01:39:59.087Z,95.63
2019-01-04T01:43:24.479Z,95.93
2019-01-04T01:46:49.945Z,96.34
2019-01-04T01:50:12.445Z,96.40
2019-01-04T01:52:47.834Z,96.60
2019-01-04T01:55:18.641Z,97.01
2019-01-04T01:57:49.406Z,96.29
2019-01-04T02:00:20.333Z,95.68
2019-01-04T02:02:51.129Z,95.76
2019-01-04T02:05:21.969Z,95.83
2019-01-04T02:07:52.753Z,95.88
2019-01-04T02:10:23.589Z,95.98
2019-01-04T02:12:54.357Z,96.12
2019-01-04T02:15:25.221Z,96.22
2019-01-04T02:17:56.059Z,96.19
2019-01-04T02:20:26.875Z,96.10
2019-01-04T02:22:57.689Z,96.10
2019-01-04T02:25:28.571Z,96.32
2019-01-04T02:27:59.376Z,96.17
2019-01-04T02:30:30.343Z,95.20
2019-01-04T02:33:01.133Z,93.75
2019-01-04T02:35:31.948Z,92.91
2019-01-04T02:38:02.825Z,91.89
2019-01-04T02:40:33.662Z,91.51
2019-01-04T02:43:04.624Z,91.20
2019-01-04T02:45:37.855Z,91.25
2019-01-04T02:48:08.789Z,91.37
2019-01-04T02:50:39.897Z,91.46
2019-01-04T02:53:10.864Z,91.93
2019-01-04T02:55:44.249Z,92.13
2019-01-04T02:58:15.405Z,91.69
2019-01-04T03:00:46.200Z,91.48
2019-01-04T03:03:17.201Z,91.06
2019-01-04T03:05:48.073Z,90.99
2019-01-04T03:08:20.658Z,90.93
2019-01-04T03:10:51.390Z,90.69
2019-01-04T03:13:22.184Z,90.45
2019-01-04T03:15:53.170Z,90.51
2019-01-04T03:18:24.185Z,90.63
2019-01-04T03:20:55.125Z,90.93
2019-01-04T03:23:26.072Z,91.32
2019-01-04T03:25:57.068Z,91.61
2019-01-04T03:28:27.784Z,91.87
2019-01-04T03:30:58.662Z,92.00
2019-01-04T03:33:29.439Z,92.05
2019-01-04T03:36:19.248Z,92.09
2019-01-04T03:38:50.248Z,92.12
2019-01-04T03:41:21.373Z,92.19
2019-01-04T03:43:52.387Z,91.75
2019-01-04T03:46:23.246Z,91.17
2019-01-04T03:48:55.300Z,90.88
2019-01-04T03:51:27.912Z,90.77
2019-01-04T03:53:58.806Z,90.53
2019-01-04T03:56:29.576Z,90.27
2019-01-04T03:59:02.936Z,90.28
2019-01-04T04:01:36.583Z,90.23
2019-01-04T04:04:07.720Z,89.70
2019-01-04T04:06:39.232Z,89.70
2019-01-04T04:09:11.256Z,89.15
2019-01-04T04:11:45.436Z,89.51
2019-01-04T04:14:18.846Z,89.21
2019-01-04T04:16:49.772Z,88.92
2019-01-04T04:19:21.042Z,88.83
2019-01-04T04:21:59.571Z,88.56
2019-01-04T04:24:32.793Z,88.41
2019-01-04T04:27:03.808Z,88.42
2019-01-04T04:29:40.252Z,88.47
2019-01-04T04:32:11.157Z,88.22
2019-01-04T04:34:42.008Z,88.21
2019-01-04T04:37:12.879Z,88.14
2019-01-04T04:39:43.724Z,87.74
2019-01-04T04:42:17.763Z,87.95
2019-01-04T04:44:48.611Z,87.78
2019-01-04T04:47:19.451Z,87.71
2019-01-04T04:49:50.226Z,87.55
2019-01-04T04:52:21.063Z,87.76
2019-01-04T04:54:53.160Z,87.77
2019-01-04T04:57:30.107Z,87.75
2019-01-04T05:00:01.136Z,87.76
2019-01-04T05:02:32.152Z,87.63
2019-01-04T05:05:06.076Z,87.71
2019-01-04T05:07:36.954Z,87.66
2019-01-04T05:10:07.758Z,87.72
2019-01-04T05:12:41.118Z,87.30
2019-01-04T05:15:13.324Z,87.23
2019-01-04T05:17:47.663Z,87.37
2019-01-04T05:20:20.327Z,87.42
2019-01-04T05:22:51.164Z,87.64
2019-01-04T05:25:21.951Z,87.71
2019-01-04T05:27:52.779Z,87.96
2019-01-04T05:30:23.738Z,87.75
2019-01-04T05:32:54.783Z,87.63
2019-01-04T05:35:29.531Z,87.39
2019-01-04T05:38:02.143Z,87.51
2019-01-04T05:40:34.331Z,87.19
2019-01-04T05:43:05.197Z,87.32
2019-01-04T05:45:38.387Z,87.00
2019-01-04T05:48:11.375Z,86.31
2019-01-04T05:50:44.524Z,86.07
2019-01-04T05:53:17.010Z,85.92
2019-01-04T05:55:48.071Z,85.89
2019-01-04T05:58:20.043Z,85.79
2019-01-04T06:00:51.009Z,85.78
2019-01-04T06:03:22.305Z,86.14
2019-01-04T06:05:53.285Z,86.49
2019-01-04T06:08:25.311Z,86.92
2019-01-04T06:10:56.061Z,87.58
2019-01-04T06:13:26.915Z,88.09
2019-01-04T06:15:57.702Z,87.63
2019-01-04T06:18:28.651Z,87.78
2019-01-04T06:21:01.099Z,88.35
2019-01-04T06:23:35.179Z,89.02
2019-01-04T06:26:07.129Z,89.59
2019-01-04T06:28:38.123Z,89.66
2019-01-04T06:31:09.186Z,90.48
2019-01-04T06:33:40.148Z,90.87
2019-01-04T06:36:10.968Z,91.27
2019-01-04T06:38:41.815Z,91.57
2019-01-04T06:41:12.663Z,91.64
2019-01-04T06:43:43.402Z,91.53
2019-01-04T06:46:14.264Z,91.83
2019-01-04T06:48:48.094Z,92.08
2019-01-04T06:51:19.110Z,92.05
2019-01-04T06:53:56.437Z,91.93
2019-01-04T06:56:30.301Z,92.09
2019-01-04T06:59:01.160Z,92.17
2019-01-04T07:01:32.120Z,92.29
2019-01-04T07:04:03.031Z,92.11
2019-01-04T07:06:34.014Z,92.40
2019-01-04T07:09:06.094Z,92.18
2019-01-04T07:11:41.108Z,91.61
2019-01-04T07:14:14.307Z,91.56
2019-01-04T07:16:49.324Z,91.55
2019-01-04T07:19:23.218Z,91.85
2019-01-04T07:21:55.043Z,91.99
2019-01-04T07:24:30.146Z,91.47
2019-01-04T07:27:01.310Z,91.19
2019-01-04T07:29:33.442Z,91.62
2019-01-04T07:32:04.630Z,91.27
2019-01-04T07:34:35.482Z,90.64
2019-01-04T07:37:08.958Z,90.71
2019-01-04T07:39:39.850Z,90.51
2019-01-04T07:42:10.790Z,91.04
2019-01-04T07:44:42.701Z,91.53
2019-01-04T07:47:16.198Z,91.52
2019-01-04T07:49:47.343Z,91.60
2019-01-04T07:52:18.354Z,90.66
2019-01-04T07:54:49.219Z,91.03
2019-01-04T07:57:20.045Z,90.89
2019-01-04T07:59:50.958Z,91.14
2019-01-04T08:02:39.053Z,91.09
2019-01-04T08:05:19.257Z,91.45
2019-01-04T08:07:50.088Z,91.38
2019-01-04T08:10:20.840Z,90.73
2019-01-04T08:24:23.082Z,90.47
2019-01-04T08:26:53.999Z,89.86
2019-01-04T08:29:24.795Z,90.14
2019-01-04T08:31:55.624Z,89.92
2019-01-04T08:34:26.385Z,89.93
2019-01-04T08:36:57.254Z,89.77
2019-01-04T08:39:28.068Z,89.77
2019-01-04T08:41:58.921Z,89.48
2019-01-04T08:44:29.704Z,89.79
2019-01-04T08:47:00.568Z,89.83
2019-01-04T08:49:31.346Z,89.52
2019-01-04T08:52:02.191Z,89.28
2019-01-04T08:54:33.106Z,88.92
2019-01-04T08:57:04.108Z,88.49
2019-01-04T08:59:34.842Z,88.53
2019-01-04T09:02:05.626Z,88.38
2019-01-04T09:04:39.149Z,88.00
2019-01-04T09:07:09.934Z,87.96
2019-01-04T09:09:40.709Z,87.83
2019-01-04T09:12:11.512Z,87.81
2019-01-04T09:14:42.500Z,87.82
2019-01-04T09:17:13.341Z,88.01
2019-01-04T09:19:44.142Z,87.46
2019-01-04T09:22:15.814Z,87.34
2019-01-04T09:24:47.104Z,87.04
2019-01-04T09:27:17.857Z,86.86
2019-01-04T09:29:48.670Z,86.60
2019-01-04T09:32:19.523Z,87.07
2019-01-04T09:34:50.445Z,86.96
2019-01-04T09:37:21.366Z,86.65
2019-01-04T09:39:52.168Z,86.83
2019-01-04T09:42:24.606Z,86.48
2019-01-04T09:44:55.405Z,86.30
2019-01-04T09:47:26.182Z,86.14
2019-01-04T09:49:57.005Z,86.08
2019-01-04T09:52:27.821Z,86.23
2019-01-04T09:54:58.629Z,86.65
2019-01-04T09:57:29.469Z,86.27
2019-01-04T10:00:00.431Z,86.08
2019-01-04T10:02:31.224Z,86.18
2019-01-04T10:05:04.031Z,86.02
2019-01-04T10:07:34.857Z,85.31
2019-01-04T10:10:06.493Z,84.81
2019-01-04T10:12:38.342Z,84.88
2019-01-04T10:15:18.578Z,85.22
2019-01-04T10:17:49.441Z,85.83
2019-01-04T10:20:20.261Z,85.44
2019-01-04T10:22:51.082Z,85.72
2019-01-04T10:25:21.909Z,85.71
2019-01-04T10:27:52.711Z,86.61
2019-01-04T10:30:28.456Z,87.21
2019-01-04T10:32:59.304Z,87.14
2019-01-04T10:35:30.077Z,87.01
2019-01-04T10:38:00.950Z,87.29
2019-01-04T10:40:31.818Z,87.44
2019-01-04T10:43:02.621Z,86.67
2019-01-04T10:45:34.131Z,86.05
2019-01-04T10:48:04.990Z,85.87
2019-01-04T10:50:35.823Z,85.93
2019-01-04T10:53:06.720Z,86.62
2019-01-04T10:55:37.576Z,87.14
2019-01-04T10:58:08.392Z,86.47
2019-01-04T11:00:39.185Z,86.11
2019-01-04T11:03:10.003Z,87.00
2019-01-04T11:05:40.964Z,87.48
2019-01-04T11:08:12.239Z,87.87
2019-01-04T11:10:43.060Z,87.47
2019-01-04T11:13:13.846Z,87.47
2019-01-04T11:15:44.598Z,87.22
2019-01-04T11:18:15.424Z,87.42
2019-01-04T11:20:52.697Z,86.96
2019-01-04T11:24:20.941Z,86.29
2019-01-04T11:27:14.911Z,86.43
2019-01-04T11:30:48.877Z,87.37
2019-01-04T11:34:10.674Z,89.15
2019-01-04T11:37:48.065Z,89.67
2019-01-04T11:41:12.244Z,90.06
2019-01-04T11:44:36.084Z,90.77
2019-01-04T11:48:26.772Z,90.98
2019-01-04T11:51:44.885Z,92.01
2019-01-04T11:54:21.839Z,93.02
2019-01-04T11:56:52.900Z,93.21
2019-01-04T12:03:31.357Z,93.42
2019-01-04T12:06:52.812Z,93.34
2019-01-04T12:10:53.916Z,93.59
2019-01-04T12:14:01.650Z,93.95
2019-01-04T12:16:32.788Z,94.16
2019-01-04T12:19:03.932Z,94.39
2019-01-04T12:21:35.258Z,94.53
2019-01-04T12:24:06.116Z,94.55
2019-01-04T12:26:36.935Z,94.37
2019-01-04T12:29:07.741Z,94.42
2019-01-04T12:31:38.516Z,94.53
2019-01-04T12:34:09.661Z,94.90
2019-01-04T12:36:40.511Z,95.25
2019-01-04T12:39:11.859Z,94.91
2019-01-04T12:41:42.688Z,94.29
2019-01-04T12:44:14.198Z,93.91
2019-01-04T12:46:52.681Z,94.35
2019-01-04T12:49:24.332Z,94.86
2019-01-04T12:51:55.151Z,94.65
2019-01-04T12:54:26.416Z,94.54
2019-01-04T12:56:57.517Z,94.10
2019-01-04T12:59:35.558Z,94.25
2019-01-04T13:02:06.463Z,93.86
2019-01-04T13:04:37.408Z,93.37
2019-01-04T13:07:08.308Z,93.79
2019-01-04T13:09:41.359Z,94.12
2019-01-04T13:12:13.443Z,93.30
2019-01-04T13:14:44.623Z,93.69
2019-01-04T13:17:15.920Z,93.11
2019-01-04T13:20:57.243Z,93.42
2019-01-04T13:23:28.419Z,93.07
2019-01-04T13:25:59.779Z,93.83
2019-01-04T13:28:31.565Z,93.98
2019-01-04T13:31:04.253Z,94.05
2019-01-04T13:33:36.633Z,94.45
2019-01-04T13:36:11.117Z,94.86
2019-01-04T13:38:42.039Z,93.89
2019-01-04T13:41:12.848Z,94.58
2019-01-04T13:44:43.660Z,95.04
2019-01-04T13:50:54.971Z,95.00
2019-01-04T13:54:04.911Z,95.00
2019-01-04T13:56:37.390Z,95.48
2019-01-04T13:59:09.633Z,95.32
2019-01-04T14:01:41.720Z,95.74
2019-01-04T14:04:12.653Z,95.03
2019-01-04T14:06:43.488Z,95.13
2019-01-04T14:09:14.549Z,95.76
2019-01-04T14:11:48.163Z,95.89
2019-01-04T14:14:35.226Z,95.79
2019-01-04T14:17:06.189Z,96.28
2019-01-04T14:19:37.575Z,96.21
2019-01-04T14:27:06.311Z,96.84
2019-01-04T14:29:37.419Z,96.84
2019-01-04T14:32:08.742Z,97.05
2019-01-04T14:35:46.890Z,97.51
2019-01-04T14:38:19.289Z,97.00
2019-01-04T14:41:04.352Z,97.02
2019-01-04T14:48:10.690Z,97.48
2019-01-04T14:50:30.410Z,97.70
2019-01-04T14:55:00.567Z,97.27
2019-01-04T14:59:21.018Z,96.82
2019-01-04T15:00:27.638Z,97.86
2019-01-04T15:02:55.450Z,97.79
2019-01-04T15:12:06.420Z,97.37
2019-01-04T15:14:47.826Z,97.72
2019-01-04T15:27:26.286Z,98.11
2019-01-04T15:30:32.701Z,97.87
2019-01-04T15:48:05.937Z,98.01
2019-01-04T15:50:31.334Z,98.30
2019-01-04T15:53:03.702Z,98.35
2019-01-04T15:55:36.153Z,98.34
2019-01-04T15:58:07.167Z,97.82
2019-01-04T16:00:38.064Z,98.17
2019-01-04T16:03:22.757Z,98.27
2019-01-04T16:05:56.621Z,98.03
2019-01-04T16:08:27.458Z,98.13
2019-01-04T16:13:49.746Z,97.34
2019-01-04T16:16:25.134Z,97.53
2019-01-04T16:18:56.297Z,97.73
2019-01-04T16:23:07.445Z,97.55
2019-01-04T16:25:21.446Z,97.20
2019-01-04T16:27:52.780Z,97.28
2019-01-04T16:30:28.493Z,97.23
2019-01-04T16:32:59.512Z,96.95
2019-01-04T16:35:33.377Z,97.02
2019-01-04T16:38:05.921Z,97.13
2019-01-04T16:40:36.964Z,97.00
2019-01-04T16:43:11.185Z,96.65
2019-01-04T16:46:32.009Z,96.42
2019-01-04T16:50:57.320Z,96.54
2019-01-04T16:53:30.564Z,96.54
2019-01-04T16:56:01.573Z,96.65
2019-01-04T16:58:32.490Z,96.85
2019-01-04T17:01:07.175Z,96.71
2019-01-04T17:03:39.687Z,96.55
2019-01-04T17:06:10.739Z,96.35
2019-01-04T17:08:41.975Z,95.71
2019-01-04T17:11:12.965Z,95.85
2019-01-04T17:13:43.925Z,96.38
2019-01-04T17:16:19.125Z,95.83
2019-01-04T17:18:51.698Z,96.23
2019-01-04T17:21:35.045Z,96.28
2019-01-04T17:23:57.174Z,96.51
2019-01-04T17:26:28.108Z,96.65
2019-01-04T17:28:58.917Z,96.53
2019-01-04T17:31:29.802Z,96.13
2019-01-04T17:34:00.695Z,96.06
2019-01-04T17:36:31.622Z,95.91
2019-01-04T17:39:02.604Z,96.23
2019-01-04T17:41:35.224Z,96.84
2019-01-04T17:44:06.186Z,96.85
2019-01-04T17:46:37.153Z,96.87
2019-01-04T17:49:07.939Z,97.07
2019-01-04T17:51:38.873Z,97.64
2019-01-04T17:54:09.668Z,97.36
2019-01-04T17:57:19.560Z,96.63
2019-01-04T17:59:50.525Z,96.16
2019-01-04T18:02:21.586Z,96.15
2019-01-04T18:04:55.993Z,96.48
2019-01-04T18:10:08.088Z,96.38
2019-01-04T18:15:13.909Z,96.07
2019-01-04T18:18:02.544Z,96.06
2019-01-04T18:20:30.154Z,96.62
2019-01-04T18:25:39.039Z,96.40
2019-01-04T18:29:14.702Z,96.66
2019-01-04T18:30:52.964Z,96.69
2019-01-04T18:33:31.067Z,96.40
2019-01-04T18:36:02.205Z,96.50
2019-01-04T18:38:33.274Z,96.49
2019-01-04T18:41:04.592Z,96.67
2019-01-04T18:43:36.587Z,96.44
2019-01-04T18:46:07.717Z,96.54
2019-01-04T18:48:42.127Z,96.87
2019-01-04T18:51:13.569Z,96.44
2019-01-04T18:53:46.521Z,96.16
2019-01-04T18:56:17.720Z,96.39
2019-01-04T18:58:49.017Z,96.39
2019-01-04T19:01:19.805Z,96.31
2019-01-04T19:03:50.788Z,96.23
2019-01-04T19:06:22.133Z,96.03
2019-01-04T19:08:52.907Z,96.02
2019-01-04T19:11:23.771Z,96.03
2019-01-04T19:13:54.730Z,96.33
2019-01-04T19:16:25.749Z,96.11
2019-01-04T19:18:56.991Z,96.10
2019-01-04T19:21:27.942Z,96.07
2019-01-04T19:24:00.144Z,96.39
2019-01-04T19:26:31.877Z,95.96
2019-01-04T19:29:03.206Z,96.50
2019-01-04T19:31:36.821Z,96.16
2019-01-04T19:34:07.790Z,96.01
2019-01-04T19:36:43.021Z,96.18
2019-01-04T19:39:15.256Z,95.87
2019-01-04T19:41:48.294Z,96.08
2019-01-04T19:44:19.669Z,95.59
2019-01-04T19:46:51.196Z,95.75
2019-01-04T19:49:22.406Z,95.45
2019-01-04T19:51:59.064Z,95.58
2019-01-04T19:55:08.870Z,95.33
2019-01-04T19:57:40.251Z,95.56
2019-01-04T20:00:15.086Z,95.40
2019-01-04T20:02:53.390Z,95.61
2019-01-04T20:18:01.699Z,95.30
2019-01-04T20:20:55.409Z,94.59
2019-01-04T20:23:47.190Z,94.88
2019-01-04T20:26:37.397Z,94.79
2019-01-04T20:29:26.810Z,94.94
2019-01-04T20:32:22.643Z,94.52
2019-01-04T20:35:21.911Z,94.36
2019-01-04T20:38:10.824Z,94.06
2019-01-04T20:41:04.028Z,94.05
2019-01-04T20:43:53.051Z,93.82
2019-01-04T20:46:52.387Z,94.29
2019-01-04T20:49:43.083Z,93.96
2019-01-04T20:52:26.446Z,93.11
2019-01-04T20:55:17.935Z,93.40
2019-01-04T20:58:07.812Z,93.54
2019-01-04T21:01:10.884Z,93.66
2019-01-04T21:04:14.616Z,94.15
2019-01-04T21:10:54.956Z,93.57
2019-01-04T21:13:21.138Z,93.50
2019-01-04T21:16:11.823Z,93.67
2019-01-04T21:19:06.968Z,93.58
2019-01-04T21:22:06.273Z,93.46
2019-01-04T21:24:56.055Z,93.30
2019-01-04T21:27:52.408Z,94.00
2019-01-04T21:30:37.200Z,93.61
2019-01-04T21:33:27.605Z,93.29
2019-01-04T21:36:23.403Z,92.98
2019-01-04T21:39:11.932Z,93.30
2019-01-04T21:42:14.130Z,93.23
2019-01-04T21:45:02.883Z,93.35
2019-01-04T21:47:55.920Z,92.99
2019-01-04T21:50:57.719Z,93.21
2019-01-04T21:53:42.663Z,93.69
2019-01-04T21:56:47.787Z,93.93
2019-01-04T21:59:37.088Z,93.26
2019-01-04T22:02:56.176Z,93.47
2019-01-04T22:05:39.976Z,93.96
2019-01-04T22:08:35.899Z,94.62
2019-01-04T22:11:24.678Z,94.90
2019-01-04T22:14:13.079Z,94.75
2019-01-04T22:17:02.142Z,94.56
2019-01-04T22:19:48.928Z,95.11
2019-01-04T22:22:53.904Z,94.56
2019-01-04T22:25:58.560Z,94.98
2019-01-04T22:28:48.589Z,95.32
2019-01-04T22:31:37.668Z,94.53
2019-01-04T22:34:22.405Z,94.61
2019-01-04T22:37:30.075Z,92.16
2019-01-04T22:40:28.559Z,92.31
2019-01-04T22:43:27.291Z,91.74
2019-01-04T22:46:19.950Z,92.51
2019-01-04T22:49:08.603Z,92.58
2019-01-04T22:51:57.267Z,91.95
2019-01-04T22:54:56.028Z,91.71
2019-01-04T22:57:45.042Z,91.79
2019-01-04T23:00:44.785Z,91.49
2019-01-04T23:03:43.582Z,91.45
2019-01-04T23:06:32.483Z,91.92
2019-01-04T23:09:26.978Z,91.99
2019-01-04T23:12:15.512Z,92.27
2019-01-04T23:15:19.909Z,92.42
2019-01-04T23:18:07.021Z,92.36
2019-01-04T23:21:05.775Z,92.64
2019-01-04T23:23:55.527Z,92.84
2019-01-04T23:26:44.250Z,93.52
2019-01-04T23:29:37.006Z,93.79
2019-01-04T23:32:26.713Z,94.44
2019-01-04T23:35:25.746Z,95.01
2019-01-04T23:38:14.216Z,95.65
2019-01-04T23:41:03.875Z,96.61
2019-01-04T23:43:56.384Z,97.02
2019-01-04T23:46:41.160Z,97.67
2019-01-04T23:49:40.355Z,98.03
2019-01-04T23:52:35.681Z,98.32
2019-01-04T23:55:34.452Z,98.60
2019-01-04T23:58:24.138Z,98.87
